Time;durP1;ratioP1;P1;durP2;ratioP2;P2;SDS_P1;SDS_P2;PMS_P1;PMS_P2;Temp;Humidity;BMP_temperature;BMP_pressure;BME280_temperature;BME280_humidity;BME280_pressure;Samples;Min_cycle;Max_cycle;Signal;HPM_P1;HPM_P2
2022/03/18 12:28:49;;;;;;;3.58;2.05;;;9.90;99.90;;;;;;5090840;28;20606;-73
2022/03/18 12:31:15;;;;;;;5.18;2.47;;;10.00;99.90;;;;;;5090932;28;20644;-74
2022/03/18 12:33:41;;;;;;;5.38;2.33;;;10.20;99.90;;;;;;5090896;28;20229;-74
2022/03/18 12:36:08;;;;;;;6.40;2.38;;;10.20;99.90;;;;;;5090875;28;20171;-74
2022/03/18 12:38:33;;;;;;;2.75;1.90;;;10.30;99.90;;;;;;5089625;28;20172;-74
2022/03/18 12:41:00;;;;;;;2.88;2.03;;;10.40;99.90;;;;;;5090679;28;20174;-74
2022/03/18 12:43:29;;;;;;;2.60;2.42;;;10.50;99.90;;;;;;5090625;28;20156;-74
2022/03/18 12:45:55;;;;;;;3.78;1.83;;;10.60;99.90;;;;;;5090631;28;20160;-74
2022/03/18 12:48:22;;;;;;;5.85;2.60;;;10.70;99.90;;;;;;5090506;28;20203;-74
2022/03/18 12:50:52;;;;;;;4.93;1.90;;;10.80;99.90;;;;;;5090531;28;20182;-74
2022/03/18 12:53:20;;;;;;;2.13;1.85;;;11.00;99.90;;;;;;5090479;28;20175;-74
2022/03/18 12:55:49;;;;;;;2.90;1.90;;;11.10;99.90;;;;;;5090420;28;20163;-74
2022/03/18 12:58:15;;;;;;;3.33;2.10;;;11.30;99.90;;;;;;5090271;28;20183;-74
2022/03/18 13:00:43;;;;;;;2.58;1.90;;;11.40;99.90;;;;;;5089119;28;20194;-74
2022/03/18 13:03:17;;;;;;;1.85;1.80;;;11.50;99.90;;;;;;5090415;28;20202;-74
2022/03/18 13:05:44;;;;;;;4.35;2.00;;;11.60;99.90;;;;;;5090143;28;20172;-74
2022/03/18 13:08:11;;;;;;;1.80;1.70;;;11.70;99.90;;;;;;5090114;28;20224;-74
2022/03/18 13:10:37;;;;;;;1.98;1.73;;;12.00;99.90;;;;;;5090125;28;20172;-74
2022/03/18 13:13:11;;;;;;;2.35;2.10;;;11.90;99.90;;;;;;5090125;28;20166;-74
2022/03/18 13:15:45;;;;;;;1.90;1.80;;;12.10;99.90;;;;;;5090016;28;20160;-74
2022/03/18 13:18:12;;;;;;;2.67;1.70;;;12.10;99.90;;;;;;5090077;28;20183;-74
2022/03/18 13:20:40;;;;;;;1.73;1.63;;;12.20;99.90;;;;;;5089904;28;20164;-74
2022/03/18 13:23:07;;;;;;;2.30;2.15;;;12.20;99.90;;;;;;5089890;28;20168;-74
2022/03/18 13:25:34;;;;;;;1.75;1.65;;;12.30;99.90;;;;;;5088743;28;20653;-74
2022/03/18 13:28:01;;;;;;;2.35;1.65;;;12.40;99.90;;;;;;5089638;28;20269;-74
2022/03/18 13:33:12;;;;;;;2.05;1.70;;;12.70;99.90;;;;;;5089978;28;20236;-74
2022/03/18 13:35:46;;;;;;;1.45;1.35;;;12.80;99.90;;;;;;5088440;28;20180;-74
2022/03/18 13:38:19;;;;;;;8.00;2.10;;;12.90;99.90;;;;;;5087445;28;20180;-74
2022/03/18 13:41:01;;;;;;;2.40;1.95;;;13.00;99.90;;;;;;5076080;28;20169;-74
2022/03/18 13:43:36;;;;;;;2.30;2.10;;;13.10;99.90;;;;;;5076047;28;20167;-74
2022/03/18 13:46:18;;;;;;;2.20;2.10;;;13.10;99.90;;;;;;5076006;28;20168;-74
2022/03/18 13:48:49;;;;;;;2.35;1.60;;;13.20;99.90;;;;;;5075850;28;20576;-74
2022/03/18 13:51:36;;;;;;;3.03;2.72;;;13.20;99.90;;;;;;5075962;28;20226;-74
2022/03/18 13:54:28;;;;;;;2.55;1.80;;;13.20;99.90;;;;;;5074565;28;20365;-74
2022/03/18 13:57:02;;;;;;;2.05;1.95;;;13.30;99.90;;;;;;5075441;28;20177;-74
2022/03/18 13:59:30;;;;;;;3.58;2.25;;;13.40;99.90;;;;;;5075815;28;20173;-74
2022/03/18 14:01:56;;;;;;;2.05;1.95;;;13.50;99.90;;;;;;5074453;28;20172;-74
2022/03/18 14:04:22;;;;;;;2.92;1.98;;;13.50;99.90;;;;;;5075607;28;20195;-74
2022/03/18 14:06:59;;;;;;;2.97;1.95;;;13.60;99.90;;;;;;5075476;28;20196;-74
2022/03/18 14:09:25;;;;;;;3.88;2.17;;;13.70;99.90;;;;;;5075670;28;20597;-74
2022/03/18 14:12:09;;;;;;;2.28;2.15;;;13.90;99.90;;;;;;5075523;28;20165;-74
2022/03/18 14:14:36;;;;;;;3.75;2.10;;;13.90;99.90;;;;;;5075483;28;20522;-74
2022/03/18 14:17:11;;;;;;;2.33;2.13;;;14.10;99.90;;;;;;5075354;28;20196;-74
2022/03/18 14:19:53;;;;;;;5.60;2.20;;;14.00;99.90;;;;;;5075356;28;20637;-74
2022/03/18 14:22:35;;;;;;;2.08;1.98;;;14.00;99.90;;;;;;5075331;28;20637;-74
2022/03/18 14:25:04;;;;;;;5.38;2.22;;;14.10;99.90;;;;;;5073990;28;20172;-74
2022/03/18 14:27:30;;;;;;;4.90;2.33;;;14.10;99.90;;;;;;5075031;28;20212;-74
2022/03/18 14:29:56;;;;;;;2.15;2.05;;;14.20;99.90;;;;;;5075190;28;20168;-74
2022/03/18 14:32:22;;;;;;;7.68;2.30;;;14.10;99.90;;;;;;5075087;28;20178;-74
2022/03/18 14:34:52;;;;;;;3.42;2.30;;;14.20;99.90;;;;;;5075078;28;20251;-74
2022/03/18 14:37:18;;;;;;;9.25;2.28;;;14.20;99.90;;;;;;5075089;28;20226;-74
2022/03/18 14:39:44;;;;;;;2.05;1.85;;;14.30;99.90;;;;;;5075031;28;20167;-74
2022/03/18 14:42:10;;;;;;;4.40;2.25;;;14.30;99.90;;;;;;5075005;28;20566;-74
2022/03/18 14:44:35;;;;;;;7.50;2.20;;;14.40;99.90;;;;;;5074917;28;20656;-74
2022/03/18 14:47:02;;;;;;;2.13;2.03;;;14.20;99.90;;;;;;5073503;28;20726;-74
2022/03/18 14:49:28;;;;;;;2.05;1.95;;;14.30;99.90;;;;;;5075112;28;20160;-74
2022/03/18 14:51:53;;;;;;;2.35;1.80;;;14.30;99.90;;;;;;5073705;28;20691;-74
2022/03/18 14:56:17;;;;;;;3.70;2.42;;;14.30;99.90;;;;;;5074625;28;20243;-74
2022/03/18 14:57:06;;;;;;;2.97;2.53;;;14.20;99.90;;;;;;5074323;28;20203;-74
2022/03/18 14:59:32;;;;;;;2.30;2.10;;;14.40;99.90;;;;;;5074578;28;20168;-74
2022/03/18 15:01:57;;;;;;;5.57;2.53;;;14.40;99.90;;;;;;5074441;28;20176;-74
2022/03/18 15:04:23;;;;;;;3.17;2.40;;;14.50;99.90;;;;;;5074482;28;20172;-74
2022/03/18 15:06:49;;;;;;;6.47;2.80;;;14.50;99.90;;;;;;5074273;28;20195;-74
2022/03/18 15:09:15;;;;;;;2.33;2.13;;;14.40;99.90;;;;;;5074251;28;20172;-74
2022/03/18 15:11:40;;;;;;;6.85;2.47;;;14.40;99.90;;;;;;5074334;28;20242;-74
2022/03/18 15:14:06;;;;;;;5.68;2.58;;;14.40;99.90;;;;;;5074297;28;20169;-74
2022/03/18 15:16:32;;;;;;;2.42;2.17;;;14.50;99.90;;;;;;5074203;28;20169;-74
2022/03/18 15:18:58;;;;;;;2.95;2.25;;;14.50;99.90;;;;;;5074232;28;20203;-74
2022/03/18 15:21:23;;;;;;;3.03;2.80;;;14.50;99.90;;;;;;5073989;28;20625;-74
2022/03/18 15:23:49;;;;;;;2.22;2.13;;;14.60;99.90;;;;;;5073992;28;20204;-74
2022/03/18 15:26:15;;;;;;;3.00;2.40;;;14.60;99.90;;;;;;5074104;28;20172;-74
2022/03/18 15:28:41;;;;;;;2.83;1.95;;;14.60;99.90;;;;;;5073768;28;20212;-74
2022/03/18 15:31:07;;;;;;;2.80;2.50;;;14.70;99.90;;;;;;5074003;28;20528;-74
2022/03/18 15:33:32;;;;;;;3.55;2.65;;;14.70;99.90;;;;;;5073995;28;20258;-74
2022/03/18 15:35:59;;;;;;;2.60;2.40;;;14.60;99.90;;;;;;5073856;28;20160;-74
2022/03/18 15:38:25;;;;;;;3.00;2.70;;;14.60;99.90;;;;;;5073853;28;20218;-74
2022/03/18 15:40:51;;;;;;;2.83;2.63;;;14.60;99.90;;;;;;5073769;28;20196;-74
2022/03/18 15:43:18;;;;;;;3.38;3.08;;;14.50;99.90;;;;;;5073874;28;20630;-74
2022/03/18 15:45:45;;;;;;;5.38;2.97;;;14.50;99.90;;;;;;5073787;28;20165;-82
2022/03/18 15:48:11;;;;;;;6.13;3.50;;;14.50;99.90;;;;;;5073630;28;20192;-83
2022/03/18 15:50:38;;;;;;;11.25;3.53;;;14.40;99.90;;;;;;5073664;28;20168;-83
2022/03/18 15:53:04;;;;;;;5.82;2.58;;;14.50;99.90;;;;;;5073696;28;20157;-83
2022/03/18 15:55:30;;;;;;;5.13;2.60;;;14.30;99.90;;;;;;5073620;28;20251;-83
2022/03/18 15:57:56;;;;;;;4.85;3.05;;;14.40;99.90;;;;;;5072277;28;20223;-83
2022/03/18 16:00:23;;;;;;;2.97;2.67;;;14.40;99.90;;;;;;5073559;28;20172;-83
2022/03/18 16:02:50;;;;;;;3.58;3.00;;;14.50;99.90;;;;;;5073247;28;20199;-83
2022/03/18 16:05:16;;;;;;;6.35;3.17;;;14.40;99.90;;;;;;5073444;28;20168;-83
2022/03/18 16:07:43;;;;;;;4.03;2.97;;;14.40;99.90;;;;;;5073371;28;20238;-83
2022/03/18 16:10:09;;;;;;;8.65;3.10;;;14.40;99.90;;;;;;5073437;28;20179;-84
2022/03/18 16:12:38;;;;;;;3.10;2.70;;;14.30;99.90;;;;;;5073439;28;20175;-83
2022/03/18 16:15:05;;;;;;;6.13;3.13;;;14.40;99.90;;;;;;5073340;28;20267;-83
2022/03/18 16:17:33;;;;;;;3.03;2.70;;;14.20;99.90;;;;;;5073272;28;20164;-83
2022/03/18 16:20:00;;;;;;;3.55;3.00;;;14.20;99.90;;;;;;5072111;28;20681;-83
2022/03/18 16:22:33;;;;;;;3.55;2.72;;;14.20;99.90;;;;;;5073240;28;20172;-83
2022/03/18 16:25:05;;;;;;;3.13;2.85;;;14.10;99.90;;;;;;5073377;28;20180;-83
2022/03/18 16:27:34;;;;;;;3.63;3.03;;;14.00;99.90;;;;;;5073035;28;20586;-82
2022/03/18 16:30:03;;;;;;;4.28;2.95;;;14.00;99.90;;;;;;5073251;28;20168;-83
2022/03/18 16:32:33;;;;;;;6.28;2.83;;;14.00;99.90;;;;;;5073024;28;20634;-82
2022/03/18 16:34:59;;;;;;;5.45;2.85;;;13.90;99.90;;;;;;5073156;28;20179;-82
2022/03/18 16:37:25;;;;;;;3.35;3.03;;;13.70;99.90;;;;;;5073126;28;20180;-82
2022/03/18 16:39:51;;;;;;;6.38;3.40;;;13.70;99.90;;;;;;5073141;28;20172;-82
2022/03/18 16:42:18;;;;;;;7.78;3.35;;;13.60;99.90;;;;;;5073037;28;20171;-82
2022/03/18 16:44:43;;;;;;;3.90;2.97;;;13.60;99.90;;;;;;5071722;28;20570;-82
2022/03/18 16:49:54;;;;;;;3.15;2.88;;;13.30;99.90;;;;;;5073319;28;20735;-82
2022/03/18 16:52:20;;;;;;;4.38;3.85;;;13.30;99.90;;;;;;5072971;28;20626;-82
2022/03/18 16:54:46;;;;;;;5.18;4.03;;;13.10;99.90;;;;;;5071820;28;20179;-82
2022/03/18 16:57:15;;;;;;;6.60;3.60;;;12.90;99.90;;;;;;5073132;28;20192;-82
2022/03/18 16:59:41;;;;;;;3.92;3.10;;;12.90;99.90;;;;;;5072109;28;20184;-84
2022/03/18 17:02:09;;;;;;;5.93;3.50;;;12.90;99.90;;;;;;5072915;28;20222;-84
2022/03/18 17:04:37;;;;;;;6.88;3.05;;;12.70;99.90;;;;;;5072872;28;20574;-83
2022/03/18 17:07:03;;;;;;;3.10;2.80;;;12.60;99.90;;;;;;5072880;28;20250;-83
2022/03/18 17:09:29;;;;;;;3.60;3.08;;;12.60;99.90;;;;;;5071715;28;20630;-83
2022/03/18 17:11:56;;;;;;;5.15;3.97;;;12.50;99.90;;;;;;5072676;28;20234;-83
2022/03/18 17:14:22;;;;;;;3.45;3.22;;;12.30;99.90;;;;;;5074529;28;20168;-83
2022/03/18 17:16:48;;;;;;;4.28;3.78;;;12.20;99.90;;;;;;5076567;28;20225;-83
2022/03/18 17:19:16;;;;;;;7.72;3.55;;;12.10;99.90;;;;;;5076507;28;20161;-83
2022/03/18 17:21:43;;;;;;;6.78;4.68;;;12.00;99.90;;;;;;5076500;28;20161;-83
2022/03/18 17:24:09;;;;;;;7.00;4.07;;;11.90;99.90;;;;;;5076479;28;20191;-83
2022/03/18 17:26:35;;;;;;;4.80;3.50;;;11.70;99.90;;;;;;5076091;28;20238;-83
2022/03/18 17:29:02;;;;;;;8.27;4.90;;;11.60;99.90;;;;;;5076400;28;20269;-83
2022/03/18 17:31:28;;;;;;;5.53;3.88;;;11.50;99.90;;;;;;5076333;28;20271;-83
2022/03/18 17:33:53;;;;;;;8.13;4.50;;;11.30;99.90;;;;;;5076111;28;20204;-83
2022/03/18 17:36:19;;;;;;;4.60;3.63;;;11.10;99.90;;;;;;5076694;28;20507;-83
2022/03/18 17:38:47;;;;;;;5.97;4.03;;;11.00;99.90;;;;;;5076154;28;20590;-83
2022/03/18 17:41:13;;;;;;;10.25;4.70;;;10.80;99.90;;;;;;5076065;28;20172;-83
2022/03/18 17:43:38;;;;;;;4.45;3.83;;;10.70;99.90;;;;;;5074850;28;20600;-83
2022/03/18 17:46:09;;;;;;;7.72;4.22;;;10.50;99.90;;;;;;5076036;28;20649;-83
2022/03/18 17:48:35;;;;;;;9.50;3.70;;;10.40;99.90;;;;;;5074665;28;20564;-83
2022/03/18 17:51:01;;;;;;;4.63;4.15;;;10.20;99.90;;;;;;5075880;28;20165;-83
